Terminal Aerodrome Forecast
Issued by NWS

Home | Current Version | Previous Version | Text Only | Print | Product List | Glossary On
Versions: 1 2 3 4 5 6 7 8 9 10 11 12
937
FTUS43 KEAX 092320
TAFMKC
TAF
KMKC 092320Z 1000/1024 VRB05KT P6SM SKC
     FM101400 29010KT P6SM FEW250=

USA.gov is the U.S. government's official web portal to all federal, state and local government web resources and services.